Dr Fridtjof Nansen — LGWS — position and weather

sailwx.info

Track history (hours):
 
Tides and Currents Weather Stations Pressure Air Temp Water Temp Dewpoint Dewpoint Depression Visibility Wind Speed Wind Dir Waves Ship Positions

Oceanographic research ship Dr Fridtjof Nansen (Norway)

Detailed information on ship capabilities available from University of Delaware's Ocean Information Center.

Last reported at 2019-Nov-20 09:00 UTC. Time now 2019-Nov-20 09:55 UTC.
Position N 58°48' W 002°18'.

Length 56.7 m; beam 12.5 m.

Type: Fishing. MMSI: 258523000.

Wind from 160 at 33 knots

Barometer 1009.7 mb
Air temperature 9.6 ° C
Dewpoint 5.1 ° C
Water temperature 10.1 ° C

Date/timePositionNaut miles runAvg speedWind from/ knotsBaromVisibWave heightAir tempDewpointWater temp
2019-Nov-20 09:00N 58°48' W 002°18'7 6.8 160 / 331009.7 9.6 5.110.1
2019-Nov-20 08:00N 58°54' W 002°12'0 0.0 160 / 311009.6 9.6 4.810.2
2019-Nov-20 07:00N 58°54' W 002°12'6 6.0 160 / 331009.2 9.5 4.610.3
2019-Nov-20 06:00N 59°00' W 002°12'7 6.7 170 / 311009.0 9.5 4.910.0
2019-Nov-20 05:00N 59°06' W 002°06'9 8.6 170 / 271009.0 9.4 5.2 9.9
2019-Nov-20 04:00N 59°12' W 001°54'7 6.7 170 / 271009.5 9.1 3.410.3
2019-Nov-20 03:00N 59°18' W 001°48'6 6.1 170 / 291009.8 8.9 2.610.2
2019-Nov-20 02:00N 59°18' W 001°36'9 8.6 180 / 271010.3 8.9 1.510.3
2019-Nov-20 01:00N 59°24' W 001°24'7 6.7 170 / 271010.6 8.8 1.610.0
2019-Nov-20 00:00N 59°30' W 001°18'1212.4 170 / 271011.1 8.6 0.6 9.9
2019-Nov-19 23:00N 59°42' W 001°12'9 8.5 170 / 231011.3 8.0 0.8 9.6
2019-Nov-19 22:00N 59°48' W 001°00'0 0.0 160 / 211012.0 7.4 0.9 9.7
2019-Nov-19 21:00N 59°48' W 001°00'9 8.5 160 / 161012.3 7.0 0.5 9.7
2019-Nov-19 20:00N 59°42' W 001°12'9 8.5 160 / 141012.1 7.2 0.5 9.7
2019-Nov-19 19:00N 59°36' W 001°24'6 6.1 150 / 141011.5 7.0 0.1 9.9
2019-Nov-19 18:00N 59°36' W 001°36'9 8.5 150 / 141011.5 6.9-0.6 9.9
2019-Nov-19 17:00N 59°30' W 001°48'9 8.6 140 / 141011.5 6.9-0.710.1
2019-Nov-19 16:00N 59°24' W 002°00'3 3.1 140 / 121011.7 6.9-0.810.0
2019-Nov-19 15:00N 59°24' W 002°06'1212.4 140 / 121011.3 7.0-0.310.2
2019-Nov-19 14:00N 59°12' W 002°12'6 6.1 170 / 101011.6 7.0-0.910.0
2019-Nov-19 13:00N 59°12' W 002°00'6 6.1 170 / 81012.2 6.7-1.710.2
2019-Nov-19 12:00N 59°12' W 001°48'9 9.2 240 / 21012.6 6.4-1.710.2
2019-Nov-19 11:00N 59°12' W 001°30'9 9.2 300 / 21012.8 6.2-1.6 9.9
2019-Nov-19 10:00N 59°12' W 001°12'6 6.1 320 / 21013.0 5.9-1.8 9.6
2019-Nov-19 09:00N 59°12' W 001°00'9 9.2 330 / 81013.0 6.0-1.8 9.3
2019-Nov-19 08:00N 59°12' W 000°42'3 3.1 330 / 101012.8 5.8-2.0 9.4
2019-Nov-19 07:00N 59°12' W 000°36'9 9.2 330 / 101012.5 5.9-2.1 9.5
2019-Nov-19 06:00N 59°12' W 000°18'9 9.2 350 / 101012.4 6.4-2.0 8.9
2019-Nov-19 05:00N 59°12' E 000°00'0 0.0 330 / 161012.5 6.6-0.1 8.7
2019-Nov-19 04:00N 59°12' E 000°00'9 9.2 330 / 141012.7 6.7-1.7 8.7
2019-Nov-19 03:00N 59°12' E 000°18'9 9.2 330 / 171012.4 6.8-1.4 8.7
2019-Nov-19 02:00N 59°12' E 000°36'0 0.0 010 / 161012.2 7.1 0.1 9.0
2019-Nov-19 01:00N 59°12' E 000°36'1212.3 1012.5 6.9 0.9 9.2
2019-Nov-19 00:00N 59°12' E 001°00'9 9.2 330 / 171012.2 7.0 0.2 9.2
2019-Nov-18 23:00N 59°12' E 001°18'3 3.1 340 / 211012.4 7.2 1.1 9.3
2019-Nov-18 22:00N 59°12' E 001°24'9 9.2 320 / 231012.2 7.4 0.8 9.3
2019-Nov-18 21:00N 59°12' E 001°42'6 6.1 340 / 231012.1 7.3 1.5 9.4
2019-Nov-18 20:00N 59°12' E 001°54'9 9.2 330 / 231012.3 7.0 1.7 9.6
2019-Nov-18 19:00N 59°12' E 002°12'6 6.1 340 / 231012.2 6.9 1.4 9.4
2019-Nov-18 18:00N 59°12' E 002°24'3 3.1 340 / 251011.5 7.0 1.1 9.6
2019-Nov-18 17:00N 59°12' E 002°30'9 9.2 330 / 231011.5 7.2 2.3 9.7
2019-Nov-18 16:00N 59°12' E 002°48'626.6 340 / 251011.2 6.8 2.5 9.3
2019-Nov-18 15:47N 59°17' E 002°54'4 6.4
2019-Nov-18 15:08N 59°17' E 003°02'534.8
2019-Nov-18 15:00N 59°12' E 003°00'6 6.1 020 / 251011.2 6.8 2.9 9.5
2019-Nov-18 14:00N 59°12' E 003°12'9 9.0 340 / 141011.3 6.5 2.2 9.9
2019-Nov-18 13:00N 59°17' E 003°26'5770.3
2019-Nov-18 13:00N 59°12' E 003°24'713.6 350 / 161011.2 7.5 1.5 9.9
2019-Nov-18 12:30N 59°17' E 003°32'610.9
2019-Nov-18 12:00N 59°12' E 003°36'9 9.0 040 / 121011.5 7.2 2.010.0
2019-Nov-18 11:00N 59°17' E 003°50'5415.7
2019-Nov-18 11:00N 59°12' E 003°48'3 3.1 050 / 101012.2 6.2 1.5 9.6
2019-Nov-18 10:00N 59°12' E 003°54'612.9 010 / 171012.7 6.5 1.3 9.8
2019-Nov-18 09:30N 59°17' E 004°02'5 3.6
2019-Nov-18 08:00N 59°12' E 004°06'6 6.1 040 / 81013.0 7.5 2.0 9.9
2019-Nov-18 07:00N 59°12' E 004°18'6 6.1 060 / 81013.0 7.5 2.7 9.8
2019-Nov-18 06:00N 59°12' E 004°30'510.2 080 / 81012.7 7.9 2.9 9.7
2019-Nov-18 05:30N 59°17' E 004°30'4 9.0
2019-Nov-18 05:00N 59°17' E 004°39'5417.1
2019-Nov-18 05:00N 59°12' E 004°36'8 8.6 070 / 61012.7 7.2 2.7 9.7
2019-Nov-18 04:00N 59°17' E 004°49'5331.6
2019-Nov-18 04:00N 59°12' E 004°48'6 6.2 090 / 41013.2 7.0 2.810.0
2019-Nov-18 03:00N 59°17' E 004°55'5328.0
2019-Nov-18 03:00N 59°12' E 004°54'6 6.6 100 / 61013.2 7.0 3.310.1
2019-Nov-18 02:00N 59°17' E 005°02'5336.5
2019-Nov-18 02:00N 59°12' E 005°00'1313.3 110 / 81013.7 6.5 2.810.1
2019-Nov-18 01:00N 59°24' E 005°09'194.6
2019-Nov-18 01:00N 59°24' E 005°06'7 6.7 110 / 41014.1 6.7 2.2 9.6
2019-Nov-18 00:00N 59°30' E 005°12'1122.4 120 / 21014.7 6.2 2.6 9.6
2019-Nov-17 23:30N 59°40' E 005°21'612.0
2019-Nov-17 23:00N 59°44' E 005°29'4862.5
2019-Nov-17 23:00N 59°42' E 005°24'1313.3 060 / 61014.6 6.0 1.5 9.7
2019-Nov-17 22:00N 59°55' E 005°30'182.0
2019-Nov-17 22:00N 59°54' E 005°30'8 8.5 130 / 21014.7 5.2 1.6 9.4
2019-Nov-17 21:00N 60°00' E 005°18'9 8.9 060 / 41014.6 5.4 1.1 9.2
2019-Nov-17 20:00N 60°07' E 005°30'151.9
2019-Nov-17 20:00N 60°06' E 005°30'0 0.0 030 / 61014.7 5.9 0.910.4
2019-Nov-17 19:00N 60°06' E 005°30'3 3.0 040 / 41014.7 6.0 0.9 9.7
2019-Nov-17 18:00N 60°06' E 005°24'4 8.5 030 / 101014.5 5.7 1.0 9.9
2019-Nov-17 17:30N 60°08' E 005°32'4 8.5
2019-Nov-17 17:00N 60°06' E 005°24'6604.2
2019-Nov-17 17:00N 60°00' E 005°24'0 0.0 050 / 101014.2 5.9 1.6 9.1
2019-Nov-17 16:00N 60°00' E 005°24'1110.8 100 / 41014.0 5.6 1.9 9.3
2019-Nov-17 15:00N 60°06' E 005°06'1212.0 210 / 21013.3 5.4 1.8 8.9
2019-Nov-17 14:00N 60°18' E 005°06'6 5.9 300 / 21012.7 5.1 1.2 9.2
2019-Nov-17 13:00N 60°18' E 005°18'0 0.0 260 1012.2 4.3 0.5 7.8
2019-Nov-17 12:00N 60°18' E 005°18'0 0.0 320 / 21011.7 4.0 0.2 8.1
2019-Nov-17 11:00N 60°18' E 005°18'0 0.0 330 1011.1 4.1 0.1 7.9
2019-Nov-17 10:00N 60°18' E 005°18'0 0.0 160 / 21010.6 3.6-0.5 8.0
2019-Nov-17 09:00N 60°18' E 005°18'0 0.0 130 / 21009.8 3.3-0.5 8.2
2019-Nov-17 08:00N 60°18' E 005°18'611.6 200 / 21008.7 3.1-0.6 7.7
2019-Nov-17 07:29N 60°24' E 005°19'612.0
2019-Nov-17 07:00N 60°18' E 005°18'0 0.0 310 1008.1 3.2-0.7 7.5
2019-Nov-17 06:00N 60°18' E 005°18'0 0.0 140 1006.8 3.3-0.3 7.6
2019-Nov-17 05:00N 60°18' E 005°18'611.6 260 1006.2 3.9 0.1 7.8
2019-Nov-17 04:29N 60°24' E 005°19'612.0
2019-Nov-17 04:00N 60°18' E 005°18'6663.9 230 1005.6 4.0 0.1 7.9
2019-Nov-17 03:59N 60°24' E 005°19'0 0.0
2019-Nov-17 03:29N 60°24' E 005°19'612.0
2019-Nov-17 03:00N 60°18' E 005°18'0 0.0 200 1005.1 4.0 0.2 7.9
2019-Nov-17 02:00N 60°18' E 005°18'611.6 290 1004.7 4.2 0.1 8.0
2019-Nov-17 01:29N 60°24' E 005°19'612.0
2019-Nov-17 01:00N 60°18' E 005°18'0 0.0 190 1004.2 4.2-0.0 8.0
2019-Nov-17 00:00N 60°18' E 005°18'0 0.0 250 1004.2 4.2-0.0 7.9
2019-Nov-16 23:00N 60°18' E 005°18'0 0.0 210 1004.2 4.2-0.2 7.7
2019-Nov-16 22:00N 60°18' E 005°18'611.5 310 1004.3 4.3-0.0 7.7
2019-Nov-16 21:29N 60°24' E 005°19'612.1
2019-Nov-16 21:00N 60°18' E 005°18'611.5 170 1004.3 4.5-0.1 7.4
2019-Nov-16 20:29N 60°24' E 005°19'612.1
2019-Nov-16 20:00N 60°18' E 005°18'611.5 270 / 21004.5 4.4-0.1 7.4
2019-Nov-16 19:29N 60°24' E 005°19'612.1
2019-Nov-16 19:00N 60°18' E 005°18'6461.8 230 / 21004.8 4.5-0.2 7.5
2019-Nov-16 18:59N 60°24' E 005°19'0 0.0
2019-Nov-16 18:29N 60°24' E 005°19'612.1
2019-Nov-16 18:00N 60°18' E 005°18'611.5 230 1005.3 4.8-0.1 7.4
2019-Nov-16 17:29N 60°24' E 005°19'612.1
2019-Nov-16 17:00N 60°18' E 005°18'6433.1 320 1005.5 4.9-0.3 7.5
2019-Nov-16 16:59N 60°24' E 005°19'6 6.0
2019-Nov-16 16:00N 60°18' E 005°18'6416.6 280 1006.0 5.3-0.2 7.7
2019-Nov-16 15:59N 60°24' E 005°19'0 0.0
2019-Nov-16 15:29N 60°24' E 005°19'612.2
2019-Nov-16 15:00N 60°18' E 005°18'0 0.0 160 1006.6 5.7-0.6 7.4
2019-Nov-16 14:00N 60°18' E 005°18'0 0.0 160 / 21007.0 5.5-0.7 7.7
2019-Nov-16 13:00N 60°18' E 005°18'0 0.0 290 / 21007.3 5.0-0.8 7.9
2019-Nov-16 12:00N 60°18' E 005°18'0 0.0 330 / 21008.2 4.7-0.7 8.0
2019-Nov-16 11:00N 60°18' E 005°18'0 0.0 020 / 21008.8 4.5-0.9 7.8
2019-Nov-16 10:00N 60°18' E 005°18'0 0.0 140 / 21009.3 4.4-1.0 7.4
2019-Nov-16 09:00N 60°18' E 005°18'0 0.0 140 / 21010.1 4.0-1.0 7.4
2019-Nov-16 08:00N 60°18' E 005°18'611.4 140 / 21010.6 3.3-1.3 7.4
2019-Nov-16 07:28N 60°24' E 005°19'612.2
2019-Nov-16 07:00N 60°18' E 005°18'611.4 150 / 21011.0 3.3-1.5 7.3
2019-Nov-16 06:28N 60°24' E 005°19'612.2
2019-Nov-16 06:00N 60°18' E 005°18'0 0.0 150 / 21011.7 3.2-1.2 7.3
2019-Nov-16 05:00N 60°18' E 005°18'0 0.0 140 1012.2 2.8-1.5 7.5
2019-Nov-16 04:00N 60°18' E 005°18'611.3 150 1012.8 2.7-1.6 7.4
2019-Nov-16 03:28N 60°24' E 005°19'612.3
2019-Nov-16 03:00N 60°18' E 005°18'6208.3 100 / 21013.5 3.1-1.5 8.3
2019-Nov-16 02:58N 60°24' E 005°19'2 4.1
2019-Nov-16 02:29N 60°24' E 005°15'612.6
2019-Nov-16 02:00N 60°18' E 005°12'0 0.0 060 / 41014.1 4.2-2.2 9.7
2019-Nov-16 01:00N 60°18' E 005°12'8 8.4 110 / 41014.6 4.0-1.3 8.5
2019-Nov-16 00:00N 60°24' E 005°00'7 6.7 110 / 41015.3 4.9-2.9 8.9
2019-Nov-15 23:00N 60°30' E 004°54'918.4 110 / 81015.9 5.4-2.9 8.7
2019-Nov-15 22:30N 60°39' E 004°52'510.6
2019-Nov-15 22:00N 60°36' E 004°42'0 0.0 110 / 61016.2 5.4-0.510.7
2019-Nov-15 21:00N 60°36' E 004°42'7 7.0 100 / 41016.6 5.4-0.410.7
2019-Nov-15 20:00N 60°43' E 004°38'171.1
2019-Nov-15 20:00N 60°42' E 004°36'5 4.7 090 / 61017.2 6.2 0.510.1
2019-Nov-15 19:00N 60°38' E 004°41'3418.9
2019-Nov-15 19:00N 60°36' E 004°36'8 7.8 070 / 61017.6 6.0-0.3 9.7
2019-Nov-15 18:00N 60°38' E 004°21'3161.2
2019-Nov-15 18:00N 60°36' E 004°18'1211.8 070 / 81017.8 7.3 1.3 9.6
2019-Nov-15 17:00N 60°36' E 003°54'9 8.8 100 / 121018.1 7.7 1.810.3
2019-Nov-15 16:00N 60°36' E 003°36'611.4 120 / 61018.2 8.3 3.3 9.1
2019-Nov-15 15:30N 60°38' E 003°26'3 5.8
2019-Nov-15 15:00N 60°36' E 003°30'1110.7 160 / 21018.5 8.0 3.1 9.1
2019-Nov-15 14:00N 60°42' E 003°48'816.2 130 / 61018.7 8.3 3.4 9.5
2019-Nov-15 13:30N 60°47' E 004°02'3 5.1
2019-Nov-15 13:00N 60°48' E 004°06'1010.4 120 / 101019.1 7.5 1.8 9.4
2019-Nov-15 12:00N 60°54' E 004°24'61291.1
2019-Nov-15 12:00N 60°48' E 004°18'1110.6 110 / 121019.1 6.9 1.810.1
2019-Nov-15 11:00N 60°54' E 004°00'1211.7 100 / 121019.2 7.4 2.8 9.5
2019-Nov-15 10:00N 60°54' E 003°36'3 5.6 060 / 141019.1 7.2 2.8 9.2
2019-Nov-15 09:29N 60°54' E 003°30'917.1
2019-Nov-15 09:00N 60°48' E 003°18'1020.6 070 / 141019.2 7.0 3.1 8.5
2019-Nov-15 08:30N 60°56' E 003°30'4 7.3
2019-Nov-15 08:00N 60°54' E 003°36'1615.7 060 / 101019.2 6.5 2.2 9.0
2019-Nov-15 07:00N 61°04' E 004°01'4486.3
2019-Nov-15 07:00N 61°00' E 004°00'1110.6 060 / 101018.8 6.0 2.0 8.5
2019-Nov-15 06:00N 61°06' E 004°18'8 8.3 070 / 61018.5 6.0 1.810.4
2019-Nov-15 05:00N 61°12' E 004°30'4 8.4 130 / 81017.8 6.0 1.710.5
2019-Nov-15 04:30N 61°13' E 004°21'714.9
2019-Nov-15 04:00N 61°12' E 004°06'4 7.1 060 / 61017.1 7.2 0.5 8.2
2019-Nov-15 03:30N 61°13' E 003°59'816.2
2019-Nov-15 03:00N 61°12' E 003°42'9 8.7 060 / 101016.3 7.0-0.2 8.4
2019-Nov-15 02:00N 61°12' E 003°24'6 5.8 040 / 101016.0 7.2 0.2 8.6
2019-Nov-15 01:00N 61°12' E 003°36'1515.1 060 / 61015.7 7.0-0.8 8.5
2019-Nov-15 00:00N 61°20' E 004°02'2145.9
2019-Nov-15 00:00N 61°18' E 004°00'1110.5 100 / 61015.0 6.7-1.6 8.6
2019-Nov-14 23:00N 61°24' E 004°18'715.0 100 / 41014.6 6.6-0.710.6
2019-Nov-14 22:30N 61°29' E 004°29'610.8
2019-Nov-14 22:00N 61°24' E 004°24'1312.9 090 / 101013.4 6.2-1.910.3
2019-Nov-14 21:00N 61°30' E 004°00'9 8.6 040 / 81012.7 7.2-1.210.0
2019-Nov-14 20:00N 61°30' E 003°42'4 7.9 040 / 141011.7 7.2 1.1 9.7
2019-Nov-14 19:30N 61°30' E 003°34'510.1
2019-Nov-14 19:00N 61°30' E 003°23'62911.3
2019-Nov-14 19:00N 61°24' E 003°18'1019.3 030 / 121011.1 7.0 0.4 8.9
2019-Nov-14 18:30N 61°32' E 003°30'510.8
2019-Nov-14 18:00N 61°34' E 003°40'4421.4
2019-Nov-14 18:00N 61°30' E 003°36'918.5 040 / 101010.6 6.4 1.2 9.4
2019-Nov-14 17:30N 61°36' E 003°50'5 9.0
2019-Nov-14 17:00N 61°36' E 004°00'9 8.6 090 / 61009.5 7.0-1.510.1
2019-Nov-14 16:00N 61°36' E 004°18'8 8.3 100 / 41008.7 6.8 0.4 9.8
2019-Nov-14 15:00N 61°42' E 004°30'3 2.8 090 / 81007.6 6.3-0.010.4
2019-Nov-14 14:00N 61°42' E 004°24'6 5.7 100 / 21006.7 7.0-1.710.3
2019-Nov-14 13:00N 61°42' E 004°12'6 5.7 090 / 61006.0 7.0-1.210.1
2019-Nov-14 12:00N 61°42' E 004°00'3 2.8 040 / 101005.3 6.7 2.4 9.8
2019-Nov-14 11:00N 61°42' E 003°54'3 6.5 030 / 101004.8 6.2 2.1 9.8
2019-Nov-14 10:30N 61°45' E 003°53'4 8.0
2019-Nov-14 10:00N 61°42' E 003°48'6 5.7 030 / 101004.6 6.2 1.3 8.8
2019-Nov-14 09:00N 61°42' E 003°36'3 2.8 030 / 121003.8 5.7 0.4 8.3
2019-Nov-14 08:00N 61°42' E 003°30'6 5.7 030 / 141003.3 6.0-0.5 8.5
2019-Nov-14 07:00N 61°42' E 003°18'4 8.2 030 / 121002.7 5.7 0.1 8.8
2019-Nov-14 06:30N 61°45' E 003°24'6 4.2
2019-Nov-14 05:00N 61°42' E 003°12'7 7.3 030 / 101001.8 5.5 0.8 7.8
2019-Nov-14 04:00N 61°42' E 003°27'2115.4
2019-Nov-14 04:00N 61°42' E 003°24'1010.4 030 / 141001.2 5.0 1.3 9.3
2019-Nov-14 03:00N 61°36' E 003°42'1111.0 020 / 121000.7 4.4 1.1 9.1
2019-Nov-14 02:00N 61°35' E 004°05'63007.4
2019-Nov-14 02:00N 61°30' E 004°00'1111.5 020 / 101000.0 5.0 1.8 9.7
2019-Nov-14 01:00N 61°30' E 004°24'9 8.6 170 / 12999.2 5.9 1.810.3
2019-Nov-14 00:00N 61°30' E 004°42'713.6 100 / 8998.7 6.7 0.8 9.0
2019-Nov-13 23:30N 61°34' E 004°53'5 9.5
2019-Nov-13 23:00N 61°30' E 005°00'1010.5 100 / 10998.2 5.0 2.0 8.8
2019-Nov-13 22:00N 61°24' E 005°18'611.8 100 / 6998.2 4.0 1.3 9.9
2019-Nov-13 21:30N 61°28' E 005°28'4 7.3
2019-Nov-13 21:00N 61°24' E 005°30'3 6.7 080 / 10998.0 4.0 1.1 8.8
2019-Nov-13 20:30N 61°27' E 005°32'510.0
2019-Nov-13 20:00N 61°24' E 005°24'0 0.0 140 / 4997.7 4.5 1.3 9.5
2019-Nov-13 19:00N 61°24' E 005°24'510.4 100 / 2997.2 4.5 1.510.5
2019-Nov-13 18:30N 61°29' E 005°22'5 9.6
2019-Nov-13 18:00N 61°30' E 005°12'6747.5
2019-Nov-13 18:00N 61°24' E 005°12'8 8.3 100 / 12996.6 5.2 1.9 9.3
2019-Nov-13 17:00N 61°30' E 005°00'5 5.3 060 / 4996.5 4.0 1.5 9.0
2019-Nov-13 16:00N 61°35' E 004°57'51056.0
2019-Nov-13 16:00N 61°30' E 004°54'0 0.0 050 / 6996.1 3.4 0.9 9.5
2019-Nov-13 15:00N 61°30' E 004°54'611.5 070 / 6995.7 2.8 0.3 9.5
2019-Nov-13 14:30N 61°35' E 004°58'4 8.5
2019-Nov-13 14:00N 61°33' E 004°50'3438.3
2019-Nov-13 14:00N 61°30' E 004°48'9 8.6 080 / 14995.2 3.5 0.9 9.2
2019-Nov-13 13:00N 61°30' E 004°30'0 1.0 050 / 10995.2 4.2 1.2 9.3
2019-Nov-13 12:31N 61°30' E 004°29'2 4.6
2019-Nov-13 12:00N 61°30' E 004°24'2 3.2 040 / 14994.6 4.5 1.110.2
2019-Nov-13 11:30N 61°30' E 004°21'4 8.2
2019-Nov-13 11:00N 61°30' E 004°12'2 1.5 040 / 14994.5 4.8 1.4 9.7
2019-Nov-13 10:00N 61°30' E 004°09'183.8
2019-Nov-13 10:00N 61°30' E 004°06'1 1.2 030 / 16994.5 4.9 1.010.6
2019-Nov-13 09:30N 61°30' E 004°05'2 4.5
2019-Nov-13 09:00N 61°30' E 004°00'2 3.3 030 / 16994.5 5.2 0.210.2
2019-Nov-13 08:30N 61°30' E 003°57'4 8.1
2019-Nov-13 08:00N 61°30' E 003°48'3 2.9 030 / 16994.3 5.2-0.110.0
2019-Nov-13 07:00N 61°30' E 003°42'2 2.4 040 / 16994.2 4.9-0.7 9.3
2019-Nov-13 06:00N 61°30' E 003°37'1225.2
2019-Nov-13 06:00N 61°30' E 003°36'3 2.9 030 / 17993.8 5.2-0.7 9.2
2019-Nov-13 05:00N 61°30' E 003°30'3 1.6 030 / 17993.7 5.0-1.7 8.6
2019-Nov-13 03:00N 61°27' E 003°33'4336.8
2019-Nov-13 03:00N 61°24' E 003°30'612.6 040 / 21994.1 5.0 0.5 8.7
2019-Nov-13 02:30N 61°25' E 003°43'510.2
2019-Nov-13 02:00N 61°23' E 003°52'52436.0
2019-Nov-13 02:00N 61°18' E 003°48'1211.5 070 / 2993.2 5.9-0.210.4
2019-Nov-13 01:00N 61°18' E 004°12'1010.3 120 / 2993.2 5.7 1.2 9.7
2019-Nov-13 00:00N 61°14' E 004°32'2440.8
2019-Nov-13 00:00N 61°12' E 004°30'4 8.0 140 / 10993.6 5.4 1.310.4
2019-Nov-12 23:30N 61°13' E 004°38'4 7.6
2019-Nov-12 23:00N 61°12' E 004°30'2 2.0 150 / 10993.3 5.2 0.710.4
2019-Nov-12 22:00N 61°13' E 004°26'1495.3
2019-Nov-12 22:00N 61°12' E 004°24'6 5.8 190 / 12993.3 5.2 1.310.5
2019-Nov-12 21:00N 61°12' E 004°12'3 2.9 250 / 2993.2 6.2-0.8 9.7
2019-Nov-12 20:00N 61°12' E 004°06'3 2.9 200 / 2993.2 6.0-0.5 9.7
2019-Nov-12 19:00N 61°12' E 004°00'3 3.0 100 / 4993.2 6.0-0.5 9.3
2019-Nov-12 18:01N 61°13' E 003°54'3174.2
2019-Nov-12 18:00N 61°12' E 003°48'3 2.9 050 / 4993.2 6.0-0.2 8.6
2019-Nov-12 17:00N 61°12' E 003°42'3 2.9 040 / 14993.1 5.7-0.3 9.4
2019-Nov-12 16:00N 61°12' E 003°36'1 2.3 020 / 17993.2 5.7-0.6 9.2
2019-Nov-12 15:30N 61°13' E 003°34'2 3.9
2019-Nov-12 15:00N 61°13' E 003°30'31493.2
2019-Nov-12 15:00N 61°12' E 003°24'1 1.2 020 / 19993.2 5.5-0.6 8.5
2019-Nov-12 14:00N 61°13' E 003°22'2271.5
2019-Nov-12 14:00N 61°12' E 003°18'510.9 020 / 21994.1 4.8-0.4 8.3
2019-Nov-12 13:30N 61°11' E 003°29'510.2
2019-Nov-12 13:00N 61°09' E 003°38'3376.3
2019-Nov-12 13:00N 61°06' E 003°36'1010.4 020 / 21994.3 5.8-0.3 9.7
2019-Nov-12 12:00N 61°04' E 003°57'4408.8
2019-Nov-12 12:00N 61°00' E 003°54'612.6 030 / 17994.3 5.9-0.9 8.6
2019-Nov-12 11:30N 61°02' E 004°06'815.9
2019-Nov-12 11:00N 60°54' E 004°12'1110.7 040 / 12994.6 6.4-0.610.0
2019-Nov-12 10:00N 60°54' E 004°34'2869.1
2019-Nov-12 10:00N 60°54' E 004°30'1111.5 060 / 12994.7 6.2-1.810.7
2019-Nov-12 09:00N 61°00' E 004°49'170.6
2019-Nov-12 09:00N 61°00' E 004°48'9 8.7 080 / 12995.1 5.7-1.7 9.5
2019-Nov-12 08:00N 61°00' E 005°06'816.0 080 / 17995.7 3.7-3.2 9.1
2019-Nov-12 07:29N 61°04' E 005°20'713.1
2019-Nov-12 07:00N 61°00' E 005°30'7 6.7 070 / 29996.7 4.2-1.9 9.0
2019-Nov-12 06:00N 61°06' E 005°36'22893.2 060 / 33996.9 2.8-3.6 8.7
2019-Nov-12 05:59N 61°07' E 005°38'1010.0
2019-Nov-12 05:00N 61°00' E 005°24'6 5.8 050 / 35996.8 2.5-5.1 9.0
2019-Nov-12 04:00N 61°00' E 005°12'611.5 070 / 6997.2 3.7-4.8 8.6
2019-Nov-12 03:30N 61°05' E 005°15'4 8.8
2019-Nov-12 03:00N 61°06' E 005°06'1 1.8 080 / 10997.6 3.2-5.2 9.2
2019-Nov-12 02:29N 61°05' E 005°05'714.9
2019-Nov-12 02:00N 61°00' E 004°54'2 3.3 060 / 25997.7 3.3-3.9 9.3
2019-Nov-12 01:30N 61°02' E 004°53'918.5
2019-Nov-12 01:00N 60°54' E 004°42'3 2.9 050 / 17997.7 3.1-3.8 9.7
2019-Nov-12 00:00N 60°54' E 004°36'22359.0 080 / 12998.5 2.8-5.610.0
2019-Nov-11 23:59N 60°55' E 004°39'2 2.0
2019-Nov-11 23:00N 60°54' E 004°36'8 8.4 070 / 12999.1 3.1-6.210.7
2019-Nov-11 22:00N 60°48' E 004°24'612.5 060 / 16998.7 3.2-5.010.0
2019-Nov-11 21:30N 60°54' E 004°22'2 3.7
2019-Nov-11 21:00N 60°54' E 004°18'015.7
2019-Nov-11 21:00N 60°54' E 004°18'6 5.8 070 / 12999.0 3.1-6.1 9.8
2019-Nov-11 20:00N 60°54' E 004°06'3 2.9 070 / 12999.5 3.0-5.1 9.3
2019-Nov-11 19:00N 60°54' E 004°00'2 3.8 070 / 141000.0 3.0-4.9 8.8
2019-Nov-11 18:30N 60°54' E 003°56'4 7.8
2019-Nov-11 18:00N 60°54' E 003°48'0 0.1 070 / 121000.2 3.2-5.4 8.8
2019-Nov-11 17:30N 60°54' E 003°48'2 4.0
2019-Nov-11 17:00N 60°54' E 003°44'6382.2
2019-Nov-11 17:00N 60°48' E 003°42'612.3 070 / 141000.3 3.2-4.9 8.7
2019-Nov-11 16:30N 60°54' E 003°40'2 3.9
2019-Nov-11 16:00N 60°54' E 003°36'4 4.0 080 / 141000.6 3.0-5.7 9.1
2019-Nov-11 15:00N 60°54' E 003°28'6481.5
2019-Nov-11 15:00N 60°48' E 003°24'7 6.7 080 / 141000.4 3.1-5.3 9.4
2019-Nov-11 14:00N 60°54' E 003°18'1110.6 100 / 141001.0 3.4-4.2 9.4
2019-Nov-11 13:00N 60°50' E 003°38'3575.7
2019-Nov-11 13:00N 60°48' E 003°36'1110.6 090 / 101001.3 3.2-5.8 9.1
2019-Nov-11 12:00N 60°42' E 003°54'56201.8 100 / 121001.6 3.4-5.110.2
2019-Nov-11 11:59N 60°47' E 003°57'1510.2
2019-Nov-11 10:30N 60°41' E 004°26'714.1
2019-Nov-11 10:00N 60°36' E 004°36'2 2.1 100 / 121002.5 2.6-5.310.6
2019-Nov-11 09:00N 60°38' E 004°36'2146.9
2019-Nov-11 09:00N 60°36' E 004°36'0 0.0 090 / 161002.7 1.4-5.510.7
2019-Nov-11 08:00N 60°36' E 004°36'3 2.9 100 / 121003.1 1.2-6.110.8
2019-Nov-11 07:00N 60°36' E 004°42'6 5.6 100 / 121003.7 0.5-7.010.9
2019-Nov-11 06:00N 60°38' E 004°31'2949.3
2019-Nov-11 06:00N 60°36' E 004°30'5 9.2 120 / 161003.6 1.5-5.210.8
2019-Nov-11 05:30N 60°38' E 004°22'510.3
2019-Nov-11 05:00N 60°36' E 004°12'9 8.8 120 / 171003.2 3.1-4.110.2
2019-Nov-11 04:00N 60°36' E 003°54'510.5 080 / 81003.7 3.0-4.610.0
2019-Nov-11 03:30N 60°38' E 003°44'714.7
2019-Nov-11 03:00N 60°36' E 003°30'3 6.6 070 / 81004.8 2.7-6.9 8.3
2019-Nov-11 02:29N 60°38' E 003°25'1 1.3
2019-Nov-11 02:00N 60°38' E 003°23'3643.6
2019-Nov-11 02:00N 60°36' E 003°18'6 6.6 040 / 41006.0 2.7-6.6 9.0
2019-Nov-11 01:00N 60°38' E 003°31'2121.3
2019-Nov-11 01:00N 60°36' E 003°30'3 6.3 040 / 81006.5 2.7-6.8 9.2
2019-Nov-11 00:30N 60°38' E 003°35'2 4.0
2019-Nov-11 00:00N 60°36' E 003°36'4 7.9 030 / 101007.2 2.7-7.0 8.7
2019-Nov-10 23:30N 60°38' E 003°43'2 3.9
2019-Nov-10 23:00N 60°36' E 003°42'510.1 350 / 81008.0 3.0-6.511.0
2019-Nov-10 22:30N 60°38' E 003°51'2 4.6
2019-Nov-10 22:00N 60°36' E 003°54'6 6.3 050 / 61008.2 2.8-8.010.1
2019-Nov-10 21:00N 60°38' E 004°06'4331.2
2019-Nov-10 21:00N 60°36' E 004°00'6 5.9 080 / 61008.8 2.8-5.810.5
2019-Nov-10 20:00N 60°36' E 004°12'3 2.9 070 / 61009.2 2.7-5.710.5
2019-Nov-10 19:00N 60°36' E 004°18'511.3 100 / 61009.8 2.7-5.111.0
2019-Nov-10 18:30N 60°38' E 004°28'2 4.4
2019-Nov-10 18:00N 60°36' E 004°30'3 2.9 090 / 81010.6 2.3-5.610.9
2019-Nov-10 17:00N 60°36' E 004°36'3 3.4 060 / 81011.3 2.3-5.111.0
2019-Nov-10 16:00N 60°37' E 004°43'1143.1
2019-Nov-10 16:00N 60°36' E 004°42'1212.4 040 / 101011.7 2.1-4.711.0
2019-Nov-10 15:00N 60°24' E 004°48'6 5.9 040 / 61012.0 1.9-7.710.6
2019-Nov-10 14:00N 60°24' E 005°00'6 5.9 050 / 61012.2 2.1-8.3 8.6
2019-Nov-10 13:00N 60°24' E 005°12'7 6.7 230 / 21012.6 1.9-7.2 6.4
2019-Nov-10 12:00N 60°18' E 005°18'0 0.0 220 / 21012.8 1.5-6.6 9.1
2019-Nov-10 11:00N 60°18' E 005°18'0 0.0 140 / 21013.1 1.8-7.2 9.1
2019-Nov-10 10:00N 60°18' E 005°18'0 0.0 170 / 21013.2 1.1-6.7 9.1
2019-Nov-10 09:00N 60°18' E 005°18'   160 / 21013.3 0.6-6.4 9.8
Track history (hours):
 
Tides and Currents Weather Stations Pressure Air Temp Water Temp Dewpoint Dewpoint Depression Visibility Wind Speed Wind Dir Waves Ship Positions

Oceanographic research ship Dr Fridtjof Nansen (Norway)

Detailed information on ship capabilities available from University of Delaware's Ocean Information Center.

Last reported at 2019-Nov-20 09:00 UTC. Time now 2019-Nov-20 09:55 UTC.
Position N 58°48' W 002°18'.

Length 56.7 m; beam 12.5 m.

Type: Fishing. MMSI: 258523000.

Wind from 160 at 33 knots

Barometer 1009.7 mb
Air temperature 9.6 ° C
Dewpoint 5.1 ° C
Water temperature 10.1 ° C

Date/timePositionNaut miles runAvg speedWind from/ knotsBaromVisibWave heightAir tempDewpointWater temp
2019-Nov-20 09:00N 58°48' W 002°18'7 6.8 160 / 331009.7 9.6 5.110.1
2019-Nov-20 08:00N 58°54' W 002°12'0 0.0 160 / 311009.6 9.6 4.810.2
2019-Nov-20 07:00N 58°54' W 002°12'6 6.0 160 / 331009.2 9.5 4.610.3
2019-Nov-20 06:00N 59°00' W 002°12'7 6.7 170 / 311009.0 9.5 4.910.0
2019-Nov-20 05:00N 59°06' W 002°06'9 8.6 170 / 271009.0 9.4 5.2 9.9
2019-Nov-20 04:00N 59°12' W 001°54'7 6.7 170 / 271009.5 9.1 3.410.3
2019-Nov-20 03:00N 59°18' W 001°48'6 6.1 170 / 291009.8 8.9 2.610.2
2019-Nov-20 02:00N 59°18' W 001°36'9 8.6 180 / 271010.3 8.9 1.510.3
2019-Nov-20 01:00N 59°24' W 001°24'7 6.7 170 / 271010.6 8.8 1.610.0
2019-Nov-20 00:00N 59°30' W 001°18'1212.4 170 / 271011.1 8.6 0.6 9.9
2019-Nov-19 23:00N 59°42' W 001°12'9 8.5 170 / 231011.3 8.0 0.8 9.6
2019-Nov-19 22:00N 59°48' W 001°00'0 0.0 160 / 211012.0 7.4 0.9 9.7
2019-Nov-19 21:00N 59°48' W 001°00'9 8.5 160 / 161012.3 7.0 0.5 9.7
2019-Nov-19 20:00N 59°42' W 001°12'9 8.5 160 / 141012.1 7.2 0.5 9.7
2019-Nov-19 19:00N 59°36' W 001°24'6 6.1 150 / 141011.5 7.0 0.1 9.9
2019-Nov-19 18:00N 59°36' W 001°36'9 8.5 150 / 141011.5 6.9-0.6 9.9
2019-Nov-19 17:00N 59°30' W 001°48'9 8.6 140 / 141011.5 6.9-0.710.1
2019-Nov-19 16:00N 59°24' W 002°00'3 3.1 140 / 121011.7 6.9-0.810.0
2019-Nov-19 15:00N 59°24' W 002°06'1212.4 140 / 121011.3 7.0-0.310.2
2019-Nov-19 14:00N 59°12' W 002°12'6 6.1 170 / 101011.6 7.0-0.910.0
2019-Nov-19 13:00N 59°12' W 002°00'6 6.1 170 / 81012.2 6.7-1.710.2
2019-Nov-19 12:00N 59°12' W 001°48'9 9.2 240 / 21012.6 6.4-1.710.2
2019-Nov-19 11:00N 59°12' W 001°30'9 9.2 300 / 21012.8 6.2-1.6 9.9
2019-Nov-19 10:00N 59°12' W 001°12'6 6.1 320 / 21013.0 5.9-1.8 9.6
2019-Nov-19 09:00N 59°12' W 001°00'9 9.2 330 / 81013.0 6.0-1.8 9.3
2019-Nov-19 08:00N 59°12' W 000°42'3 3.1 330 / 101012.8 5.8-2.0 9.4
2019-Nov-19 07:00N 59°12' W 000°36'9 9.2 330 / 101012.5 5.9-2.1 9.5
2019-Nov-19 06:00N 59°12' W 000°18'9 9.2 350 / 101012.4 6.4-2.0 8.9
2019-Nov-19 05:00N 59°12' E 000°00'0 0.0 330 / 161012.5 6.6-0.1 8.7
2019-Nov-19 04:00N 59°12' E 000°00'9 9.2 330 / 141012.7 6.7-1.7 8.7
2019-Nov-19 03:00N 59°12' E 000°18'9 9.2 330 / 171012.4 6.8-1.4 8.7
2019-Nov-19 02:00N 59°12' E 000°36'0 0.0 010 / 161012.2 7.1 0.1 9.0
2019-Nov-19 01:00N 59°12' E 000°36'1212.3 1012.5 6.9 0.9 9.2
2019-Nov-19 00:00N 59°12' E 001°00'9 9.2 330 / 171012.2 7.0 0.2 9.2
2019-Nov-18 23:00N 59°12' E 001°18'3 3.1 340 / 211012.4 7.2 1.1 9.3
2019-Nov-18 22:00N 59°12' E 001°24'9 9.2 320 / 231012.2 7.4 0.8 9.3
2019-Nov-18 21:00N 59°12' E 001°42'6 6.1 340 / 231012.1 7.3 1.5 9.4
2019-Nov-18 20:00N 59°12' E 001°54'9 9.2 330 / 231012.3 7.0 1.7 9.6
2019-Nov-18 19:00N 59°12' E 002°12'6 6.1 340 / 231012.2 6.9 1.4 9.4
2019-Nov-18 18:00N 59°12' E 002°24'3 3.1 340 / 251011.5 7.0 1.1 9.6
2019-Nov-18 17:00N 59°12' E 002°30'9 9.2 330 / 231011.5 7.2 2.3 9.7
2019-Nov-18 16:00N 59°12' E 002°48'626.6 340 / 251011.2 6.8 2.5 9.3
2019-Nov-18 15:47N 59°17' E 002°54'4 6.4
2019-Nov-18 15:08N 59°17' E 003°02'534.8
2019-Nov-18 15:00N 59°12' E 003°00'6 6.1 020 / 251011.2 6.8 2.9 9.5
2019-Nov-18 14:00N 59°12' E 003°12'9 9.0 340 / 141011.3 6.5 2.2 9.9
2019-Nov-18 13:00N 59°17' E 003°26'5770.3
2019-Nov-18 13:00N 59°12' E 003°24'713.6 350 / 161011.2 7.5 1.5 9.9
2019-Nov-18 12:30N 59°17' E 003°32'610.9
2019-Nov-18 12:00N 59°12' E 003°36'9 9.0 040 / 121011.5 7.2 2.010.0
2019-Nov-18 11:00N 59°17' E 003°50'5415.7
2019-Nov-18 11:00N 59°12' E 003°48'3 3.1 050 / 101012.2 6.2 1.5 9.6
2019-Nov-18 10:00N 59°12' E 003°54'612.9 010 / 171012.7 6.5 1.3 9.8
2019-Nov-18 09:30N 59°17' E 004°02'5 3.6
2019-Nov-18 08:00N 59°12' E 004°06'6 6.1 040 / 81013.0 7.5 2.0 9.9
2019-Nov-18 07:00N 59°12' E 004°18'6 6.1 060 / 81013.0 7.5 2.7 9.8
2019-Nov-18 06:00N 59°12' E 004°30'510.2 080 / 81012.7 7.9 2.9 9.7
2019-Nov-18 05:30N 59°17' E 004°30'4 9.0
2019-Nov-18 05:00N 59°17' E 004°39'5417.1
2019-Nov-18 05:00N 59°12' E 004°36'8 8.6 070 / 61012.7 7.2 2.7 9.7
2019-Nov-18 04:00N 59°17' E 004°49'5331.6
2019-Nov-18 04:00N 59°12' E 004°48'6 6.2 090 / 41013.2 7.0 2.810.0
2019-Nov-18 03:00N 59°17' E 004°55'5328.0
2019-Nov-18 03:00N 59°12' E 004°54'6 6.6 100 / 61013.2 7.0 3.310.1
2019-Nov-18 02:00N 59°17' E 005°02'5336.5
2019-Nov-18 02:00N 59°12' E 005°00'1313.3 110 / 81013.7 6.5 2.810.1
2019-Nov-18 01:00N 59°24' E 005°09'194.6
2019-Nov-18 01:00N 59°24' E 005°06'7 6.7 110 / 41014.1 6.7 2.2 9.6
2019-Nov-18 00:00N 59°30' E 005°12'1122.4 120 / 21014.7 6.2 2.6 9.6
2019-Nov-17 23:30N 59°40' E 005°21'612.0
2019-Nov-17 23:00N 59°44' E 005°29'4862.5
2019-Nov-17 23:00N 59°42' E 005°24'1313.3 060 / 61014.6 6.0 1.5 9.7
2019-Nov-17 22:00N 59°55' E 005°30'182.0
2019-Nov-17 22:00N 59°54' E 005°30'8 8.5 130 / 21014.7 5.2 1.6 9.4
2019-Nov-17 21:00N 60°00' E 005°18'9 8.9 060 / 41014.6 5.4 1.1 9.2
2019-Nov-17 20:00N 60°07' E 005°30'151.9
2019-Nov-17 20:00N 60°06' E 005°30'0 0.0 030 / 61014.7 5.9 0.910.4
2019-Nov-17 19:00N 60°06' E 005°30'3 3.0 040 / 41014.7 6.0 0.9 9.7
2019-Nov-17 18:00N 60°06' E 005°24'4 8.5 030 / 101014.5 5.7 1.0 9.9
2019-Nov-17 17:30N 60°08' E 005°32'4 8.5
2019-Nov-17 17:00N 60°06' E 005°24'6604.2
2019-Nov-17 17:00N 60°00' E 005°24'0 0.0 050 / 101014.2 5.9 1.6 9.1
2019-Nov-17 16:00N 60°00' E 005°24'1110.8 100 / 41014.0 5.6 1.9 9.3
2019-Nov-17 15:00N 60°06' E 005°06'1212.0 210 / 21013.3 5.4 1.8 8.9
2019-Nov-17 14:00N 60°18' E 005°06'6 5.9 300 / 21012.7 5.1 1.2 9.2
2019-Nov-17 13:00N 60°18' E 005°18'0 0.0 260 1012.2 4.3 0.5 7.8
2019-Nov-17 12:00N 60°18' E 005°18'0 0.0 320 / 21011.7 4.0 0.2 8.1
2019-Nov-17 11:00N 60°18' E 005°18'0 0.0 330 1011.1 4.1 0.1 7.9
2019-Nov-17 10:00N 60°18' E 005°18'0 0.0 160 / 21010.6 3.6-0.5 8.0
2019-Nov-17 09:00N 60°18' E 005°18'0 0.0 130 / 21009.8 3.3-0.5 8.2
2019-Nov-17 08:00N 60°18' E 005°18'611.6 200 / 21008.7 3.1-0.6 7.7
2019-Nov-17 07:29N 60°24' E 005°19'612.0
2019-Nov-17 07:00N 60°18' E 005°18'0 0.0 310 1008.1 3.2-0.7 7.5
2019-Nov-17 06:00N 60°18' E 005°18'0 0.0 140 1006.8 3.3-0.3 7.6
2019-Nov-17 05:00N 60°18' E 005°18'611.6 260 1006.2 3.9 0.1 7.8
2019-Nov-17 04:29N 60°24' E 005°19'612.0
2019-Nov-17 04:00N 60°18' E 005°18'6663.9 230 1005.6 4.0 0.1 7.9
2019-Nov-17 03:59N 60°24' E 005°19'0 0.0
2019-Nov-17 03:29N 60°24' E 005°19'612.0
2019-Nov-17 03:00N 60°18' E 005°18'0 0.0 200 1005.1 4.0 0.2 7.9
2019-Nov-17 02:00N 60°18' E 005°18'611.6 290 1004.7 4.2 0.1 8.0
2019-Nov-17 01:29N 60°24' E 005°19'612.0
2019-Nov-17 01:00N 60°18' E 005°18'0 0.0 190 1004.2 4.2-0.0 8.0
2019-Nov-17 00:00N 60°18' E 005°18'0 0.0 250 1004.2 4.2-0.0 7.9
2019-Nov-16 23:00N 60°18' E 005°18'0 0.0 210 1004.2 4.2-0.2 7.7
2019-Nov-16 22:00N 60°18' E 005°18'611.5 310 1004.3 4.3-0.0 7.7
2019-Nov-16 21:29N 60°24' E 005°19'612.1
2019-Nov-16 21:00N 60°18' E 005°18'611.5 170 1004.3 4.5-0.1 7.4
2019-Nov-16 20:29N 60°24' E 005°19'612.1
2019-Nov-16 20:00N 60°18' E 005°18'611.5 270 / 21004.5 4.4-0.1 7.4
2019-Nov-16 19:29N 60°24' E 005°19'612.1
2019-Nov-16 19:00N 60°18' E 005°18'6461.8 230 / 21004.8 4.5-0.2 7.5
2019-Nov-16 18:59N 60°24' E 005°19'0 0.0
2019-Nov-16 18:29N 60°24' E 005°19'612.1
2019-Nov-16 18:00N 60°18' E 005°18'611.5 230 1005.3 4.8-0.1 7.4
2019-Nov-16 17:29N 60°24' E 005°19'612.1
2019-Nov-16 17:00N 60°18' E 005°18'6433.1 320 1005.5 4.9-0.3 7.5
2019-Nov-16 16:59N 60°24' E 005°19'6 6.0
2019-Nov-16 16:00N 60°18' E 005°18'6416.6 280 1006.0 5.3-0.2 7.7
2019-Nov-16 15:59N 60°24' E 005°19'0 0.0
2019-Nov-16 15:29N 60°24' E 005°19'612.2
2019-Nov-16 15:00N 60°18' E 005°18'0 0.0 160 1006.6 5.7-0.6 7.4
2019-Nov-16 14:00N 60°18' E 005°18'0 0.0 160 / 21007.0 5.5-0.7 7.7
2019-Nov-16 13:00N 60°18' E 005°18'0 0.0 290 / 21007.3 5.0-0.8 7.9
2019-Nov-16 12:00N 60°18' E 005°18'0 0.0 330 / 21008.2 4.7-0.7 8.0
2019-Nov-16 11:00N 60°18' E 005°18'0 0.0 020 / 21008.8 4.5-0.9 7.8
2019-Nov-16 10:00N 60°18' E 005°18'0 0.0 140 / 21009.3 4.4-1.0 7.4
2019-Nov-16 09:00N 60°18' E 005°18'0 0.0 140 / 21010.1 4.0-1.0 7.4
2019-Nov-16 08:00N 60°18' E 005°18'611.4 140 / 21010.6 3.3-1.3 7.4
2019-Nov-16 07:28N 60°24' E 005°19'612.2
2019-Nov-16 07:00N 60°18' E 005°18'611.4 150 / 21011.0 3.3-1.5 7.3
2019-Nov-16 06:28N 60°24' E 005°19'612.2
2019-Nov-16 06:00N 60°18' E 005°18'0 0.0 150 / 21011.7 3.2-1.2 7.3
2019-Nov-16 05:00N 60°18' E 005°18'0 0.0 140 1012.2 2.8-1.5 7.5
2019-Nov-16 04:00N 60°18' E 005°18'611.3 150 1012.8 2.7-1.6 7.4
2019-Nov-16 03:28N 60°24' E 005°19'612.3
2019-Nov-16 03:00N 60°18' E 005°18'6208.3 100 / 21013.5 3.1-1.5 8.3
2019-Nov-16 02:58N 60°24' E 005°19'2 4.1
2019-Nov-16 02:29N 60°24' E 005°15'612.6
2019-Nov-16 02:00N 60°18' E 005°12'0 0.0 060 / 41014.1 4.2-2.2 9.7
2019-Nov-16 01:00N 60°18' E 005°12'8 8.4 110 / 41014.6 4.0-1.3 8.5
2019-Nov-16 00:00N 60°24' E 005°00'7 6.7 110 / 41015.3 4.9-2.9 8.9
2019-Nov-15 23:00N 60°30' E 004°54'918.4 110 / 81015.9 5.4-2.9 8.7
2019-Nov-15 22:30N 60°39' E 004°52'510.6
2019-Nov-15 22:00N 60°36' E 004°42'0 0.0 110 / 61016.2 5.4-0.510.7
2019-Nov-15 21:00N 60°36' E 004°42'7 7.0 100 / 41016.6 5.4-0.410.7
2019-Nov-15 20:00N 60°43' E 004°38'171.1
2019-Nov-15 20:00N 60°42' E 004°36'5 4.7 090 / 61017.2 6.2 0.510.1
2019-Nov-15 19:00N 60°38' E 004°41'3418.9
2019-Nov-15 19:00N 60°36' E 004°36'8 7.8 070 / 61017.6 6.0-0.3 9.7
2019-Nov-15 18:00N 60°38' E 004°21'3161.2
2019-Nov-15 18:00N 60°36' E 004°18'1211.8 070 / 81017.8 7.3 1.3 9.6
2019-Nov-15 17:00N 60°36' E 003°54'9 8.8 100 / 121018.1 7.7 1.810.3
2019-Nov-15 16:00N 60°36' E 003°36'611.4 120 / 61018.2 8.3 3.3 9.1
2019-Nov-15 15:30N 60°38' E 003°26'3 5.8
2019-Nov-15 15:00N 60°36' E 003°30'1110.7 160 / 21018.5 8.0 3.1 9.1
2019-Nov-15 14:00N 60°42' E 003°48'816.2 130 / 61018.7 8.3 3.4 9.5
2019-Nov-15 13:30N 60°47' E 004°02'3 5.1
2019-Nov-15 13:00N 60°48' E 004°06'1010.4 120 / 101019.1 7.5 1.8 9.4
2019-Nov-15 12:00N 60°54' E 004°24'61291.1
2019-Nov-15 12:00N 60°48' E 004°18'1110.6 110 / 121019.1 6.9 1.810.1
2019-Nov-15 11:00N 60°54' E 004°00'1211.7 100 / 121019.2 7.4 2.8 9.5
2019-Nov-15 10:00N 60°54' E 003°36'3 5.6 060 / 141019.1 7.2 2.8 9.2
2019-Nov-15 09:29N 60°54' E 003°30'917.1
2019-Nov-15 09:00N 60°48' E 003°18'1020.6 070 / 141019.2 7.0 3.1 8.5
2019-Nov-15 08:30N 60°56' E 003°30'4 7.3
2019-Nov-15 08:00N 60°54' E 003°36'1615.7 060 / 101019.2 6.5 2.2 9.0
2019-Nov-15 07:00N 61°04' E 004°01'4486.3
2019-Nov-15 07:00N 61°00' E 004°00'1110.6 060 / 101018.8 6.0 2.0 8.5
2019-Nov-15 06:00N 61°06' E 004°18'8 8.3 070 / 61018.5 6.0 1.810.4
2019-Nov-15 05:00N 61°12' E 004°30'4 8.4 130 / 81017.8 6.0 1.710.5
2019-Nov-15 04:30N 61°13' E 004°21'714.9
2019-Nov-15 04:00N 61°12' E 004°06'4 7.1 060 / 61017.1 7.2 0.5 8.2
2019-Nov-15 03:30N 61°13' E 003°59'816.2
2019-Nov-15 03:00N 61°12' E 003°42'9 8.7 060 / 101016.3 7.0-0.2 8.4
2019-Nov-15 02:00N 61°12' E 003°24'6 5.8 040 / 101016.0 7.2 0.2 8.6
2019-Nov-15 01:00N 61°12' E 003°36'1515.1 060 / 61015.7 7.0-0.8 8.5
2019-Nov-15 00:00N 61°20' E 004°02'2145.9
2019-Nov-15 00:00N 61°18' E 004°00'1110.5 100 / 61015.0 6.7-1.6 8.6
2019-Nov-14 23:00N 61°24' E 004°18'715.0 100 / 41014.6 6.6-0.710.6
2019-Nov-14 22:30N 61°29' E 004°29'610.8
2019-Nov-14 22:00N 61°24' E 004°24'1312.9 090 / 101013.4 6.2-1.910.3
2019-Nov-14 21:00N 61°30' E 004°00'9 8.6 040 / 81012.7 7.2-1.210.0
2019-Nov-14 20:00N 61°30' E 003°42'4 7.9 040 / 141011.7 7.2 1.1 9.7
2019-Nov-14 19:30N 61°30' E 003°34'510.1
2019-Nov-14 19:00N 61°30' E 003°23'62911.3
2019-Nov-14 19:00N 61°24' E 003°18'1019.3 030 / 121011.1 7.0 0.4 8.9
2019-Nov-14 18:30N 61°32' E 003°30'510.8
2019-Nov-14 18:00N 61°34' E 003°40'4421.4
2019-Nov-14 18:00N 61°30' E 003°36'918.5 040 / 101010.6 6.4 1.2 9.4
2019-Nov-14 17:30N 61°36' E 003°50'5 9.0
2019-Nov-14 17:00N 61°36' E 004°00'9 8.6 090 / 61009.5 7.0-1.510.1
2019-Nov-14 16:00N 61°36' E 004°18'8 8.3 100 / 41008.7 6.8 0.4 9.8
2019-Nov-14 15:00N 61°42' E 004°30'3 2.8 090 / 81007.6 6.3-0.010.4
2019-Nov-14 14:00N 61°42' E 004°24'6 5.7 100 / 21006.7 7.0-1.710.3
2019-Nov-14 13:00N 61°42' E 004°12'6 5.7 090 / 61006.0 7.0-1.210.1
2019-Nov-14 12:00N 61°42' E 004°00'3 2.8 040 / 101005.3 6.7 2.4 9.8
2019-Nov-14 11:00N 61°42' E 003°54'3 6.5 030 / 101004.8 6.2 2.1 9.8
2019-Nov-14 10:30N 61°45' E 003°53'4 8.0
2019-Nov-14 10:00N 61°42' E 003°48'6 5.7 030 / 101004.6 6.2 1.3 8.8
2019-Nov-14 09:00N 61°42' E 003°36'3 2.8 030 / 121003.8 5.7 0.4 8.3
2019-Nov-14 08:00N 61°42' E 003°30'6 5.7 030 / 141003.3 6.0-0.5 8.5
2019-Nov-14 07:00N 61°42' E 003°18'4 8.2 030 / 121002.7 5.7 0.1 8.8
2019-Nov-14 06:30N 61°45' E 003°24'6 4.2
2019-Nov-14 05:00N 61°42' E 003°12'7 7.3 030 / 101001.8 5.5 0.8 7.8
2019-Nov-14 04:00N 61°42' E 003°27'2115.4
2019-Nov-14 04:00N 61°42' E 003°24'1010.4 030 / 141001.2 5.0 1.3 9.3
2019-Nov-14 03:00N 61°36' E 003°42'1111.0 020 / 121000.7 4.4 1.1 9.1
2019-Nov-14 02:00N 61°35' E 004°05'63007.4
2019-Nov-14 02:00N 61°30' E 004°00'1111.5 020 / 101000.0 5.0 1.8 9.7
2019-Nov-14 01:00N 61°30' E 004°24'9 8.6 170 / 12999.2 5.9 1.810.3
2019-Nov-14 00:00N 61°30' E 004°42'713.6 100 / 8998.7 6.7 0.8 9.0
2019-Nov-13 23:30N 61°34' E 004°53'5 9.5
2019-Nov-13 23:00N 61°30' E 005°00'1010.5 100 / 10998.2 5.0 2.0 8.8
2019-Nov-13 22:00N 61°24' E 005°18'611.8 100 / 6998.2 4.0 1.3 9.9
2019-Nov-13 21:30N 61°28' E 005°28'4 7.3
2019-Nov-13 21:00N 61°24' E 005°30'3 6.7 080 / 10998.0 4.0 1.1 8.8
2019-Nov-13 20:30N 61°27' E 005°32'510.0
2019-Nov-13 20:00N 61°24' E 005°24'0 0.0 140 / 4997.7 4.5 1.3 9.5
2019-Nov-13 19:00N 61°24' E 005°24'510.4 100 / 2997.2 4.5 1.510.5
2019-Nov-13 18:30N 61°29' E 005°22'5 9.6
2019-Nov-13 18:00N 61°30' E 005°12'6747.5
2019-Nov-13 18:00N 61°24' E 005°12'8 8.3 100 / 12996.6 5.2 1.9 9.3
2019-Nov-13 17:00N 61°30' E 005°00'5 5.3 060 / 4996.5 4.0 1.5 9.0
2019-Nov-13 16:00N 61°35' E 004°57'51056.0
2019-Nov-13 16:00N 61°30' E 004°54'0 0.0 050 / 6996.1 3.4 0.9 9.5
2019-Nov-13 15:00N 61°30' E 004°54'611.5 070 / 6995.7 2.8 0.3 9.5
2019-Nov-13 14:30N 61°35' E 004°58'4 8.5
2019-Nov-13 14:00N 61°33' E 004°50'3438.3
2019-Nov-13 14:00N 61°30' E 004°48'9 8.6 080 / 14995.2 3.5 0.9 9.2
2019-Nov-13 13:00N 61°30' E 004°30'0 1.0 050 / 10995.2 4.2 1.2 9.3
2019-Nov-13 12:31N 61°30' E 004°29'2 4.6
2019-Nov-13 12:00N 61°30' E 004°24'2 3.2 040 / 14994.6 4.5 1.110.2
2019-Nov-13 11:30N 61°30' E 004°21'4 8.2
2019-Nov-13 11:00N 61°30' E 004°12'2 1.5 040 / 14994.5 4.8 1.4 9.7
2019-Nov-13 10:00N 61°30' E 004°09'183.8
2019-Nov-13 10:00N 61°30' E 004°06'1 1.2 030 / 16994.5 4.9 1.010.6
2019-Nov-13 09:30N 61°30' E 004°05'2 4.5
2019-Nov-13 09:00N 61°30' E 004°00'2 3.3 030 / 16994.5 5.2 0.210.2
2019-Nov-13 08:30N 61°30' E 003°57'4 8.1
2019-Nov-13 08:00N 61°30' E 003°48'3 2.9 030 / 16994.3 5.2-0.110.0
2019-Nov-13 07:00N 61°30' E 003°42'2 2.4 040 / 16994.2 4.9-0.7 9.3
2019-Nov-13 06:00N 61°30' E 003°37'1225.2
2019-Nov-13 06:00N 61°30' E 003°36'3 2.9 030 / 17993.8 5.2-0.7 9.2
2019-Nov-13 05:00N 61°30' E 003°30'3 1.6 030 / 17993.7 5.0-1.7 8.6
2019-Nov-13 03:00N 61°27' E 003°33'4336.8
2019-Nov-13 03:00N 61°24' E 003°30'612.6 040 / 21994.1 5.0 0.5 8.7
2019-Nov-13 02:30N 61°25' E 003°43'510.2
2019-Nov-13 02:00N 61°23' E 003°52'52436.0
2019-Nov-13 02:00N 61°18' E 003°48'1211.5 070 / 2993.2 5.9-0.210.4
2019-Nov-13 01:00N 61°18' E 004°12'1010.3 120 / 2993.2 5.7 1.2 9.7
2019-Nov-13 00:00N 61°14' E 004°32'2440.8
2019-Nov-13 00:00N 61°12' E 004°30'4 8.0 140 / 10993.6 5.4 1.310.4
2019-Nov-12 23:30N 61°13' E 004°38'4 7.6
2019-Nov-12 23:00N 61°12' E 004°30'2 2.0 150 / 10993.3 5.2 0.710.4
2019-Nov-12 22:00N 61°13' E 004°26'1495.3
2019-Nov-12 22:00N 61°12' E 004°24'6 5.8 190 / 12993.3 5.2 1.310.5
2019-Nov-12 21:00N 61°12' E 004°12'3 2.9 250 / 2993.2 6.2-0.8 9.7
2019-Nov-12 20:00N 61°12' E 004°06'3 2.9 200 / 2993.2 6.0-0.5 9.7
2019-Nov-12 19:00N 61°12' E 004°00'3 3.0 100 / 4993.2 6.0-0.5 9.3
2019-Nov-12 18:01N 61°13' E 003°54'3174.2
2019-Nov-12 18:00N 61°12' E 003°48'3 2.9 050 / 4993.2 6.0-0.2 8.6
2019-Nov-12 17:00N 61°12' E 003°42'3 2.9 040 / 14993.1 5.7-0.3 9.4
2019-Nov-12 16:00N 61°12' E 003°36'1 2.3 020 / 17993.2 5.7-0.6 9.2
2019-Nov-12 15:30N 61°13' E 003°34'2 3.9
2019-Nov-12 15:00N 61°13' E 003°30'31493.2
2019-Nov-12 15:00N 61°12' E 003°24'1 1.2 020 / 19993.2 5.5-0.6 8.5
2019-Nov-12 14:00N 61°13' E 003°22'2271.5
2019-Nov-12 14:00N 61°12' E 003°18'510.9 020 / 21994.1 4.8-0.4 8.3
2019-Nov-12 13:30N 61°11' E 003°29'510.2
2019-Nov-12 13:00N 61°09' E 003°38'3376.3
2019-Nov-12 13:00N 61°06' E 003°36'1010.4 020 / 21994.3 5.8-0.3 9.7
2019-Nov-12 12:00N 61°04' E 003°57'4408.8
2019-Nov-12 12:00N 61°00' E 003°54'612.6 030 / 17994.3 5.9-0.9 8.6
2019-Nov-12 11:30N 61°02' E 004°06'815.9
2019-Nov-12 11:00N 60°54' E 004°12'1110.7 040 / 12994.6 6.4-0.610.0
2019-Nov-12 10:00N 60°54' E 004°34'2869.1
2019-Nov-12 10:00N 60°54' E 004°30'1111.5 060 / 12994.7 6.2-1.810.7
2019-Nov-12 09:00N 61°00' E 004°49'170.6
2019-Nov-12 09:00N 61°00' E 004°48'9 8.7 080 / 12995.1 5.7-1.7 9.5
2019-Nov-12 08:00N 61°00' E 005°06'816.0 080 / 17995.7 3.7-3.2 9.1
2019-Nov-12 07:29N 61°04' E 005°20'713.1
2019-Nov-12 07:00N 61°00' E 005°30'7 6.7 070 / 29996.7 4.2-1.9 9.0
2019-Nov-12 06:00N 61°06' E 005°36'22893.2 060 / 33996.9 2.8-3.6 8.7
2019-Nov-12 05:59N 61°07' E 005°38'1010.0
2019-Nov-12 05:00N 61°00' E 005°24'6 5.8 050 / 35996.8 2.5-5.1 9.0
2019-Nov-12 04:00N 61°00' E 005°12'611.5 070 / 6997.2 3.7-4.8 8.6
2019-Nov-12 03:30N 61°05' E 005°15'4 8.8
2019-Nov-12 03:00N 61°06' E 005°06'1 1.8 080 / 10997.6 3.2-5.2 9.2
2019-Nov-12 02:29N 61°05' E 005°05'714.9
2019-Nov-12 02:00N 61°00' E 004°54'2 3.3 060 / 25997.7 3.3-3.9 9.3
2019-Nov-12 01:30N 61°02' E 004°53'918.5
2019-Nov-12 01:00N 60°54' E 004°42'3 2.9 050 / 17997.7 3.1-3.8 9.7
2019-Nov-12 00:00N 60°54' E 004°36'22359.0 080 / 12998.5 2.8-5.610.0
2019-Nov-11 23:59N 60°55' E 004°39'2 2.0
2019-Nov-11 23:00N 60°54' E 004°36'8 8.4 070 / 12999.1 3.1-6.210.7
2019-Nov-11 22:00N 60°48' E 004°24'612.5 060 / 16998.7 3.2-5.010.0
2019-Nov-11 21:30N 60°54' E 004°22'2 3.7
2019-Nov-11 21:00N 60°54' E 004°18'015.7
2019-Nov-11 21:00N 60°54' E 004°18'6 5.8 070 / 12999.0 3.1-6.1 9.8
2019-Nov-11 20:00N 60°54' E 004°06'3 2.9 070 / 12999.5 3.0-5.1 9.3
2019-Nov-11 19:00N 60°54' E 004°00'2 3.8 070 / 141000.0 3.0-4.9 8.8
2019-Nov-11 18:30N 60°54' E 003°56'4 7.8
2019-Nov-11 18:00N 60°54' E 003°48'0 0.1 070 / 121000.2 3.2-5.4 8.8
2019-Nov-11 17:30N 60°54' E 003°48'2 4.0
2019-Nov-11 17:00N 60°54' E 003°44'6382.2
2019-Nov-11 17:00N 60°48' E 003°42'612.3 070 / 141000.3 3.2-4.9 8.7
2019-Nov-11 16:30N 60°54' E 003°40'2 3.9
2019-Nov-11 16:00N 60°54' E 003°36'4 4.0 080 / 141000.6 3.0-5.7 9.1
2019-Nov-11 15:00N 60°54' E 003°28'6481.5
2019-Nov-11 15:00N 60°48' E 003°24'7 6.7 080 / 141000.4 3.1-5.3 9.4
2019-Nov-11 14:00N 60°54' E 003°18'1110.6 100 / 141001.0 3.4-4.2 9.4
2019-Nov-11 13:00N 60°50' E 003°38'3575.7
2019-Nov-11 13:00N 60°48' E 003°36'1110.6 090 / 101001.3 3.2-5.8 9.1
2019-Nov-11 12:00N 60°42' E 003°54'56201.8 100 / 121001.6 3.4-5.110.2
2019-Nov-11 11:59N 60°47' E 003°57'1510.2
2019-Nov-11 10:30N 60°41' E 004°26'714.1
2019-Nov-11 10:00N 60°36' E 004°36'2 2.1 100 / 121002.5 2.6-5.310.6
2019-Nov-11 09:00N 60°38' E 004°36'2146.9
2019-Nov-11 09:00N 60°36' E 004°36'0 0.0 090 / 161002.7 1.4-5.510.7
2019-Nov-11 08:00N 60°36' E 004°36'3 2.9 100 / 121003.1 1.2-6.110.8
2019-Nov-11 07:00N 60°36' E 004°42'6 5.6 100 / 121003.7 0.5-7.010.9
2019-Nov-11 06:00N 60°38' E 004°31'2949.3
2019-Nov-11 06:00N 60°36' E 004°30'5 9.2 120 / 161003.6 1.5-5.210.8
2019-Nov-11 05:30N 60°38' E 004°22'510.3
2019-Nov-11 05:00N 60°36' E 004°12'9 8.8 120 / 171003.2 3.1-4.110.2
2019-Nov-11 04:00N 60°36' E 003°54'510.5 080 / 81003.7 3.0-4.610.0
2019-Nov-11 03:30N 60°38' E 003°44'714.7
2019-Nov-11 03:00N 60°36' E 003°30'3 6.6 070 / 81004.8 2.7-6.9 8.3
2019-Nov-11 02:29N 60°38' E 003°25'1 1.3
2019-Nov-11 02:00N 60°38' E 003°23'3643.6
2019-Nov-11 02:00N 60°36' E 003°18'6 6.6 040 / 41006.0 2.7-6.6 9.0
2019-Nov-11 01:00N 60°38' E 003°31'2121.3
2019-Nov-11 01:00N 60°36' E 003°30'3 6.3 040 / 81006.5 2.7-6.8 9.2
2019-Nov-11 00:30N 60°38' E 003°35'2 4.0
2019-Nov-11 00:00N 60°36' E 003°36'4 7.9 030 / 101007.2 2.7-7.0 8.7
2019-Nov-10 23:30N 60°38' E 003°43'2 3.9
2019-Nov-10 23:00N 60°36' E 003°42'510.1 350 / 81008.0 3.0-6.511.0
2019-Nov-10 22:30N 60°38' E 003°51'2 4.6
2019-Nov-10 22:00N 60°36' E 003°54'6 6.3 050 / 61008.2 2.8-8.010.1
2019-Nov-10 21:00N 60°38' E 004°06'4331.2
2019-Nov-10 21:00N 60°36' E 004°00'6 5.9 080 / 61008.8 2.8-5.810.5
2019-Nov-10 20:00N 60°36' E 004°12'3 2.9 070 / 61009.2 2.7-5.710.5
2019-Nov-10 19:00N 60°36' E 004°18'511.3 100 / 61009.8 2.7-5.111.0
2019-Nov-10 18:30N 60°38' E 004°28'2 4.4
2019-Nov-10 18:00N 60°36' E 004°30'3 2.9 090 / 81010.6 2.3-5.610.9
2019-Nov-10 17:00N 60°36' E 004°36'3 3.4 060 / 81011.3 2.3-5.111.0
2019-Nov-10 16:00N 60°37' E 004°43'1143.1
2019-Nov-10 16:00N 60°36' E 004°42'1212.4 040 / 101011.7 2.1-4.711.0
2019-Nov-10 15:00N 60°24' E 004°48'6 5.9 040 / 61012.0 1.9-7.710.6
2019-Nov-10 14:00N 60°24' E 005°00'6 5.9 050 / 61012.2 2.1-8.3 8.6
2019-Nov-10 13:00N 60°24' E 005°12'7 6.7 230 / 21012.6 1.9-7.2 6.4
2019-Nov-10 12:00N 60°18' E 005°18'0 0.0 220 / 21012.8 1.5-6.6 9.1
2019-Nov-10 11:00N 60°18' E 005°18'0 0.0 140 / 21013.1 1.8-7.2 9.1
2019-Nov-10 10:00N 60°18' E 005°18'0 0.0 170 / 21013.2 1.1-6.7 9.1
2019-Nov-10 09:00N 60°18' E 005°18'   160 / 21013.3 0.6-6.4 9.8

Dump ship's entire track history